createdAt,value
2023-01-25T00:01:20.800Z,23.99
2023-01-25T00:03:51.745Z,22.92
2023-01-25T00:06:23.120Z,23.48
2023-01-25T00:08:54.596Z,23.35
2023-01-25T00:11:25.903Z,23.05
2023-01-25T00:13:57.411Z,22.62
2023-01-25T00:16:28.862Z,23.47
2023-01-25T00:19:00.213Z,22.75
2023-01-25T00:21:31.464Z,22.65
2023-01-25T00:24:05.636Z,21.65
2023-01-25T00:26:37.824Z,21.69
2023-01-25T00:29:09.158Z,21.18
2023-01-25T00:31:49.775Z,21.45
2023-01-25T00:34:32.794Z,21.27
2023-01-25T00:37:05.754Z,21.33
2023-01-25T00:39:38.134Z,20.79
2023-01-25T00:42:14.350Z,20.46
2023-01-25T00:44:48.708Z,20.75
2023-01-25T00:47:20.516Z,20.63
2023-01-25T00:49:58.403Z,20.88
2023-01-25T00:52:30.471Z,20.65
2023-01-25T00:55:03.054Z,20.62
2023-01-25T00:57:34.584Z,20.85
2023-01-25T01:00:06.885Z,20.86
2023-01-25T01:02:38.111Z,20.58
2023-01-25T01:05:10.020Z,20.81
2023-01-25T01:07:42.005Z,21.28
2023-01-25T01:10:13.330Z,21.16
2023-01-25T01:12:44.376Z,21.02
2023-01-25T01:15:18.799Z,21.70
2023-01-25T01:17:50.204Z,21.64
2023-01-25T01:20:21.660Z,21.86
2023-01-25T01:22:56.941Z,21.93
2023-01-25T01:25:31.523Z,21.75
2023-01-25T01:28:03.553Z,22.01
2023-01-25T01:30:36.012Z,21.97
2023-01-25T01:33:08.137Z,22.10
2023-01-25T01:35:40.371Z,22.18
2023-01-25T01:38:19.606Z,22.04
2023-01-25T01:40:52.065Z,22.56
2023-01-25T01:43:27.525Z,22.54
2023-01-25T01:46:01.882Z,22.55
2023-01-25T01:48:54.174Z,22.95
2023-01-25T01:51:32.478Z,23.62
2023-01-25T01:54:25.894Z,23.69
2023-01-25T01:57:02.096Z,23.62
2023-01-25T01:59:43.556Z,23.54
2023-01-25T02:02:16.705Z,23.69
2023-01-25T02:04:50.910Z,23.52
2023-01-25T02:07:37.700Z,24.02
2023-01-25T02:10:12.141Z,23.61
2023-01-25T02:12:49.624Z,23.72
2023-01-25T02:15:21.112Z,23.31
2023-01-25T02:17:52.852Z,23.14
2023-01-25T02:20:47.676Z,23.54
2023-01-25T02:23:35.363Z,23.29
2023-01-25T02:26:08.268Z,22.91
2023-01-25T02:28:58.997Z,23.64
2023-01-25T02:31:35.546Z,23.41
2023-01-25T02:34:07.602Z,23.60
2023-01-25T02:36:38.857Z,23.77
2023-01-25T02:39:15.575Z,24.35
2023-01-25T02:41:52.028Z,24.50
2023-01-25T02:44:34.483Z,23.77
2023-01-25T02:47:07.383Z,24.22
2023-01-25T02:49:39.886Z,25.15
2023-01-25T02:52:15.631Z,25.84
2023-01-25T02:54:48.470Z,25.65
2023-01-25T02:57:24.990Z,25.29
2023-01-25T02:59:57.655Z,25.96
2023-01-25T03:02:30.364Z,26.48
2023-01-25T03:05:02.111Z,26.70
2023-01-25T03:07:33.288Z,26.38
2023-01-25T03:10:04.026Z,25.55
2023-01-25T03:12:37.665Z,24.61
2023-01-25T03:15:09.370Z,24.69
2023-01-25T03:17:41.455Z,24.27
2023-01-25T03:20:18.136Z,24.70
2023-01-25T03:22:50.522Z,24.74
2023-01-25T03:25:21.693Z,24.82
2023-01-25T03:28:01.944Z,25.21
2023-01-25T03:30:33.589Z,25.27
2023-01-25T03:33:04.923Z,24.57
2023-01-25T03:35:37.154Z,24.03
2023-01-25T03:38:09.120Z,24.09
2023-01-25T03:40:39.845Z,24.36
2023-01-25T03:43:11.193Z,24.25
2023-01-25T03:45:42.455Z,24.89
2023-01-25T03:48:15.008Z,24.41
2023-01-25T03:50:50.499Z,23.96
2023-01-25T03:53:30.632Z,24.37
2023-01-25T03:56:13.594Z,25.71
2023-01-25T03:58:50.140Z,25.31
2023-01-25T04:01:24.529Z,24.97
2023-01-25T04:03:56.370Z,24.34
2023-01-25T04:06:34.050Z,24.76
2023-01-25T04:09:07.732Z,24.16
2023-01-25T04:11:46.423Z,25.28
2023-01-25T04:14:35.094Z,25.26
2023-01-25T04:17:12.904Z,25.39
2023-01-25T04:19:52.165Z,25.32
2023-01-25T04:22:28.183Z,25.30
2023-01-25T04:25:00.555Z,24.14
2023-01-25T04:27:32.757Z,24.28
2023-01-25T04:30:10.356Z,24.74
2023-01-25T04:32:41.781Z,24.46
2023-01-25T04:35:27.200Z,24.06
2023-01-25T04:38:01.575Z,23.58
2023-01-25T04:40:44.070Z,23.47
2023-01-25T04:43:19.255Z,23.48
2023-01-25T04:45:51.088Z,23.52
2023-01-25T04:48:32.398Z,23.42
2023-01-25T04:51:08.475Z,23.08
2023-01-25T04:53:39.772Z,23.27
2023-01-25T04:56:13.279Z,23.02
2023-01-25T04:58:55.730Z,23.03
2023-01-25T05:01:26.905Z,23.14
2023-01-25T05:04:00.509Z,23.00
2023-01-25T05:06:40.624Z,22.56
2023-01-25T05:09:12.626Z,23.28
2023-01-25T05:11:45.844Z,23.54
2023-01-25T05:14:36.205Z,23.73
2023-01-25T05:17:10.001Z,22.72
2023-01-25T05:19:41.085Z,22.70
2023-01-25T05:22:18.673Z,22.77
2023-01-25T05:24:52.398Z,23.77
2023-01-25T05:27:24.344Z,23.93
2023-01-25T05:29:58.849Z,23.58
2023-01-25T05:32:51.640Z,23.57
2023-01-25T05:35:22.699Z,23.42
2023-01-25T05:38:01.389Z,23.10
2023-01-25T05:40:32.754Z,22.38
2023-01-25T05:43:04.988Z,22.56
2023-01-25T05:45:35.976Z,22.39
2023-01-25T05:48:08.156Z,22.43
2023-01-25T05:50:39.296Z,22.61
2023-01-25T05:53:14.333Z,22.43
2023-01-25T05:55:45.240Z,22.35
2023-01-25T05:58:20.910Z,22.46
2023-01-25T06:00:52.175Z,22.71
2023-01-25T06:03:34.624Z,22.40
2023-01-25T06:06:06.146Z,22.31
2023-01-25T06:08:38.258Z,22.69
2023-01-25T06:11:18.316Z,22.91
2023-01-25T06:13:50.355Z,22.55
2023-01-25T06:16:22.041Z,22.69
2023-01-25T06:18:58.971Z,22.90
2023-01-25T06:21:38.770Z,22.61
2023-01-25T06:24:10.164Z,22.48
2023-01-25T06:26:41.548Z,22.43
2023-01-25T06:29:12.737Z,22.44
2023-01-25T06:31:43.963Z,22.09
2023-01-25T06:34:15.150Z,22.23
2023-01-25T06:36:46.179Z,22.64
2023-01-25T06:39:17.270Z,22.61
2023-01-25T06:41:49.423Z,22.32
2023-01-25T06:44:20.689Z,22.26
2023-01-25T06:46:51.712Z,22.14
2023-01-25T06:49:23.273Z,22.35
2023-01-25T06:51:54.447Z,22.31
2023-01-25T06:54:25.609Z,22.19
2023-01-25T06:56:57.053Z,21.93
2023-01-25T06:59:29.371Z,21.83
2023-01-25T07:02:00.487Z,21.63
2023-01-25T07:04:31.466Z,21.54
2023-01-25T07:07:02.372Z,21.18
2023-01-25T07:09:33.204Z,21.14
2023-01-25T07:12:06.270Z,21.03
2023-01-25T07:14:37.323Z,20.95
2023-01-25T07:17:08.252Z,20.91
2023-01-25T07:19:39.140Z,20.98
2023-01-25T07:22:10.202Z,20.78
2023-01-25T07:24:41.297Z,20.63
2023-01-25T07:27:12.388Z,20.58
2023-01-25T07:29:43.884Z,20.47
2023-01-25T07:32:18.221Z,20.39
2023-01-25T07:34:49.348Z,20.31
2023-01-25T07:37:20.752Z,20.30
2023-01-25T07:39:52.071Z,20.23
2023-01-25T07:42:23.124Z,20.18
2023-01-25T07:44:57.030Z,20.05
2023-01-25T07:47:27.934Z,20.13
2023-01-25T07:49:59.112Z,19.88
2023-01-25T07:52:30.491Z,19.87
2023-01-25T07:55:01.472Z,19.80
2023-01-25T07:57:33.248Z,19.78
2023-01-25T08:00:05.716Z,19.70
2023-01-25T08:02:42.961Z,19.65
2023-01-25T08:05:14.162Z,19.58
2023-01-25T08:07:45.151Z,19.52
2023-01-25T08:10:16.799Z,19.48
2023-01-25T08:12:48.713Z,19.43
2023-01-25T08:15:19.665Z,19.38
2023-01-25T08:17:51.004Z,19.32
2023-01-25T08:20:23.926Z,19.27
2023-01-25T08:22:55.171Z,19.25
2023-01-25T08:25:26.464Z,19.22
2023-01-25T08:27:57.583Z,19.10
2023-01-25T08:30:28.870Z,19.04
2023-01-25T08:32:59.918Z,19.02
2023-01-25T08:35:31.083Z,19.03
2023-01-25T08:38:02.406Z,18.95
2023-01-25T08:40:35.179Z,18.94
2023-01-25T08:43:07.992Z,18.84
2023-01-25T08:45:39.240Z,18.86
2023-01-25T08:48:10.429Z,18.78
2023-01-25T08:50:41.754Z,18.80
2023-01-25T08:53:13.109Z,18.82
2023-01-25T08:55:44.653Z,18.68
2023-01-25T08:58:17.555Z,18.69
2023-01-25T09:00:49.265Z,18.64
2023-01-25T09:03:20.311Z,18.64
2023-01-25T09:05:51.451Z,18.53
2023-01-25T09:08:23.042Z,18.49
2023-01-25T09:10:54.163Z,18.44
2023-01-25T09:13:25.215Z,18.41
2023-01-25T09:16:11.380Z,18.35
2023-01-25T09:18:44.068Z,18.30
2023-01-25T09:21:18.036Z,18.27
2023-01-25T09:24:09.101Z,18.28
2023-01-25T09:26:46.005Z,18.23
2023-01-25T09:29:19.300Z,18.16
2023-01-25T09:31:50.558Z,18.05
2023-01-25T09:34:38.221Z,18.11
2023-01-25T09:37:09.199Z,18.12
2023-01-25T09:39:40.314Z,17.97
2023-01-25T09:42:22.136Z,17.94
2023-01-25T09:45:08.524Z,17.82
2023-01-25T09:47:45.957Z,17.87
2023-01-25T09:50:28.338Z,17.80
2023-01-25T09:53:15.452Z,17.78
2023-01-25T09:55:47.077Z,17.77
2023-01-25T09:58:26.820Z,17.76
2023-01-25T10:01:14.414Z,17.73
2023-01-25T10:04:11.804Z,17.59
2023-01-25T10:06:55.169Z,17.65
2023-01-25T10:09:42.669Z,17.63
2023-01-25T10:12:23.974Z,17.56
2023-01-25T10:14:55.343Z,17.63
2023-01-25T10:17:41.745Z,17.63
2023-01-25T10:20:35.848Z,17.64
2023-01-25T10:23:31.741Z,17.61
2023-01-25T10:26:06.241Z,17.53
2023-01-25T10:29:03.367Z,17.52
2023-01-25T10:31:46.830Z,17.57
2023-01-25T10:34:50.736Z,17.51
2023-01-25T10:37:31.333Z,17.51
2023-01-25T10:40:04.121Z,17.50
2023-01-25T10:43:20.917Z,17.48
2023-01-25T10:45:52.539Z,17.39
2023-01-25T10:48:28.957Z,17.49
2023-01-25T10:51:01.097Z,17.48
2023-01-25T10:53:45.615Z,17.55
2023-01-25T10:56:27.794Z,17.55
2023-01-25T10:59:17.942Z,17.60
2023-01-25T11:01:49.487Z,17.60
2023-01-25T11:04:38.392Z,17.63
2023-01-25T11:07:29.008Z,17.75
2023-01-25T11:10:00.301Z,17.79
2023-01-25T11:12:32.797Z,17.80
2023-01-25T11:15:26.207Z,17.74
2023-01-25T11:18:08.499Z,17.61
2023-01-25T11:20:39.547Z,17.59
2023-01-25T11:23:30.827Z,17.56
2023-01-25T11:26:17.369Z,17.41
2023-01-25T11:28:50.530Z,17.41
2023-01-25T11:31:24.950Z,17.22
2023-01-25T11:33:55.895Z,17.24
2023-01-25T11:36:46.520Z,17.15
2023-01-25T11:39:33.526Z,17.20
2023-01-25T11:42:25.478Z,17.04
2023-01-25T11:44:59.053Z,17.03
2023-01-25T11:47:58.856Z,17.13
2023-01-25T11:50:48.614Z,17.11
2023-01-25T11:53:53.633Z,17.18
2023-01-25T11:56:47.997Z,17.09
2023-01-25T11:59:37.347Z,17.12
2023-01-25T12:02:30.228Z,17.17
2023-01-25T12:05:21.897Z,17.16
2023-01-25T12:08:02.567Z,17.14
2023-01-25T12:11:02.961Z,17.01
2023-01-25T12:14:05.155Z,16.98
2023-01-25T12:16:43.457Z,16.98
2023-01-25T12:19:24.220Z,16.93
2023-01-25T12:22:20.420Z,16.92
2023-01-25T12:25:23.492Z,16.82
2023-01-25T12:28:23.635Z,16.80
2023-01-25T12:31:05.567Z,16.74
2023-01-25T12:33:41.012Z,16.62
2023-01-25T12:36:21.344Z,16.68
2023-01-25T12:39:11.799Z,16.52
2023-01-25T12:42:05.680Z,16.48
2023-01-25T12:44:50.053Z,16.33
2023-01-25T12:47:37.637Z,16.38
2023-01-25T12:50:21.254Z,16.29
2023-01-25T12:53:01.177Z,16.04
2023-01-25T12:55:32.510Z,15.96
2023-01-25T12:58:07.981Z,16.13
2023-01-25T13:00:47.203Z,16.21
2023-01-25T13:03:37.905Z,16.09
2023-01-25T13:06:42.236Z,16.05
2023-01-25T13:09:28.666Z,15.93
2023-01-25T13:12:00.907Z,15.69
2023-01-25T13:14:37.675Z,15.64
2023-01-25T13:17:25.280Z,15.59
2023-01-25T13:19:56.604Z,15.44
2023-01-25T13:22:45.916Z,15.27
2023-01-25T13:25:19.580Z,15.22
2023-01-25T13:27:50.932Z,15.28
2023-01-25T13:30:33.229Z,15.19
2023-01-25T13:33:04.950Z,15.11
2023-01-25T13:35:43.809Z,15.14
2023-01-25T13:38:20.846Z,15.21
2023-01-25T13:41:12.363Z,15.05
2023-01-25T13:43:45.343Z,15.09
2023-01-25T13:46:18.684Z,15.15
2023-01-25T13:48:56.322Z,15.04
2023-01-25T13:51:29.919Z,14.97
2023-01-25T13:54:01.921Z,14.85
2023-01-25T13:56:36.038Z,14.81
2023-01-25T13:59:06.991Z,14.69
2023-01-25T14:01:38.868Z,14.70
2023-01-25T14:04:14.278Z,14.69
2023-01-25T14:06:45.638Z,14.76
2023-01-25T14:09:17.848Z,14.88
2023-01-25T14:11:55.174Z,14.85
2023-01-25T14:14:36.816Z,14.86
2023-01-25T14:17:20.421Z,14.86
2023-01-25T14:19:52.987Z,14.95
2023-01-25T14:22:31.886Z,14.85
2023-01-25T14:25:18.573Z,14.93
2023-01-25T14:27:56.407Z,14.89
2023-01-25T14:30:35.250Z,14.87
2023-01-25T14:33:19.733Z,14.94
2023-01-25T14:35:59.995Z,14.85
2023-01-25T14:38:43.416Z,14.82
2023-01-25T14:41:48.830Z,14.83
2023-01-25T14:44:26.853Z,14.73
2023-01-25T14:47:29.433Z,14.70
2023-01-25T14:50:50.883Z,14.74
2023-01-25T14:53:26.670Z,14.64
2023-01-25T14:55:57.563Z,14.67
2023-01-25T14:58:30.592Z,14.74
2023-01-25T15:01:03.857Z,14.60
2023-01-25T15:03:37.485Z,14.51
2023-01-25T15:06:09.231Z,14.73
2023-01-25T15:08:42.203Z,14.90
2023-01-25T15:11:50.552Z,14.87
2023-01-25T15:14:23.734Z,14.82
2023-01-25T15:16:54.630Z,14.94
2023-01-25T15:19:31.385Z,14.96
2023-01-25T15:22:03.534Z,14.91
2023-01-25T15:24:35.355Z,14.97
2023-01-25T15:27:06.731Z,14.88
2023-01-25T15:29:37.581Z,14.87
2023-01-25T15:32:14.468Z,15.03
2023-01-25T15:34:45.518Z,15.08
2023-01-25T15:37:16.627Z,15.09
2023-01-25T15:39:48.037Z,15.15
2023-01-25T15:42:19.195Z,15.14
2023-01-25T15:44:50.205Z,15.01
2023-01-25T15:47:21.481Z,15.03
2023-01-25T15:49:53.154Z,14.95
2023-01-25T15:52:24.275Z,15.14
2023-01-25T15:55:01.395Z,15.06
2023-01-25T15:57:35.728Z,15.12
2023-01-25T16:00:08.511Z,15.20
2023-01-25T16:02:40.153Z,15.24
2023-01-25T16:05:11.307Z,15.27
2023-01-25T16:07:45.080Z,15.24
2023-01-25T16:10:26.708Z,15.25
2023-01-25T16:12:57.691Z,15.15
2023-01-25T16:15:28.847Z,15.18
2023-01-25T16:18:00.156Z,15.23
2023-01-25T16:20:31.088Z,15.25
2023-01-25T16:23:02.828Z,15.30
2023-01-25T16:25:33.729Z,15.30
2023-01-25T16:28:05.184Z,15.10
2023-01-25T16:30:36.417Z,15.00
2023-01-25T16:33:07.331Z,14.94
2023-01-25T16:35:38.426Z,15.18
2023-01-25T16:38:11.054Z,15.24
2023-01-25T16:40:42.526Z,15.19
2023-01-25T16:43:13.551Z,15.07
2023-01-25T16:45:44.499Z,15.05
2023-01-25T16:48:19.237Z,15.12
2023-01-25T16:50:52.443Z,15.10
2023-01-25T16:53:23.515Z,15.09
2023-01-25T16:55:54.349Z,15.02
2023-01-25T16:58:25.419Z,15.17
2023-01-25T17:00:56.587Z,15.17
2023-01-25T17:03:27.930Z,15.08
2023-01-25T17:05:58.988Z,15.03
2023-01-25T17:08:30.897Z,15.07
2023-01-25T17:11:08.875Z,15.12
2023-01-25T17:13:40.287Z,15.03
2023-01-25T17:16:11.655Z,15.05
2023-01-25T17:18:42.855Z,15.09
2023-01-25T17:21:19.179Z,15.05
2023-01-25T17:23:50.563Z,15.10
2023-01-25T17:26:22.893Z,15.09
2023-01-25T17:28:54.490Z,15.09
2023-01-25T17:31:28.778Z,15.20
2023-01-25T17:34:02.886Z,15.21
2023-01-25T17:36:33.848Z,15.21
2023-01-25T17:39:06.747Z,15.08
2023-01-25T17:41:37.705Z,15.08
2023-01-25T17:44:08.615Z,15.11
2023-01-25T17:46:39.807Z,15.31
2023-01-25T17:49:14.589Z,15.34
2023-01-25T17:51:46.057Z,15.51
2023-01-25T17:54:17.732Z,15.43
2023-01-25T17:56:49.102Z,15.75
2023-01-25T17:59:20.112Z,15.84
2023-01-25T18:01:51.968Z,15.81
2023-01-25T18:04:22.917Z,15.92
2023-01-25T18:06:53.993Z,15.95
2023-01-25T18:09:26.546Z,15.92
2023-01-25T18:11:57.870Z,16.10
2023-01-25T18:14:30.915Z,16.33
2023-01-25T18:17:02.653Z,16.51
2023-01-25T18:19:34.387Z,16.65
2023-01-25T18:22:05.580Z,16.72
2023-01-25T18:24:37.870Z,16.90
2023-01-25T18:27:19.535Z,17.12
2023-01-25T18:30:22.953Z,17.41
2023-01-25T18:32:54.022Z,17.41
2023-01-25T18:35:26.577Z,17.36
2023-01-25T18:37:58.138Z,17.66
2023-01-25T18:40:31.281Z,17.91
2023-01-25T18:43:02.993Z,18.09
2023-01-25T18:45:33.867Z,18.43
2023-01-25T18:48:07.508Z,18.38
2023-01-25T18:50:42.991Z,18.55
2023-01-25T18:53:14.423Z,18.55
2023-01-25T18:55:45.543Z,18.78
2023-01-25T18:58:16.836Z,18.72
2023-01-25T19:00:47.907Z,18.78
2023-01-25T19:03:19.236Z,19.11
2023-01-25T19:05:53.956Z,19.18
2023-01-25T19:08:26.706Z,19.43
2023-01-25T19:11:02.783Z,19.70
2023-01-25T19:13:36.606Z,19.66
2023-01-25T19:16:07.933Z,19.85
2023-01-25T19:18:42.029Z,19.93
2023-01-25T19:21:13.011Z,19.75
2023-01-25T19:23:44.225Z,19.80
2023-01-25T19:26:18.642Z,19.86
2023-01-25T19:28:50.219Z,19.96
2023-01-25T19:31:25.883Z,20.06
2023-01-25T19:33:58.863Z,20.32
2023-01-25T19:36:32.335Z,20.40
2023-01-25T19:39:04.495Z,20.37
2023-01-25T19:41:35.837Z,20.72
2023-01-25T19:44:08.723Z,20.87
2023-01-25T19:46:40.401Z,21.16
2023-01-25T19:49:14.590Z,21.51
2023-01-25T19:51:50.269Z,21.61
2023-01-25T19:54:23.069Z,21.89
2023-01-25T19:56:54.092Z,21.97
2023-01-25T19:59:27.191Z,21.90
2023-01-25T20:01:58.492Z,22.28
2023-01-25T20:04:29.609Z,22.29
2023-01-25T20:07:00.739Z,22.54
2023-01-25T20:09:32.250Z,22.51
2023-01-25T20:12:07.156Z,22.57
2023-01-25T20:14:39.372Z,22.94
2023-01-25T20:17:10.708Z,23.11
2023-01-25T20:19:41.823Z,22.68
2023-01-25T20:22:14.060Z,22.94
2023-01-25T20:24:45.260Z,23.13
2023-01-25T20:27:16.663Z,22.20
2023-01-25T20:29:49.659Z,22.32
2023-01-25T20:32:32.057Z,21.99
2023-01-25T20:35:08.473Z,21.91
2023-01-25T20:37:39.948Z,22.22
2023-01-25T20:40:11.634Z,22.67
2023-01-25T20:42:42.600Z,22.63
2023-01-25T20:45:18.345Z,23.10
2023-01-25T20:47:49.385Z,22.99
2023-01-25T20:50:20.511Z,23.12
2023-01-25T20:52:51.493Z,23.60
2023-01-25T20:55:22.771Z,23.32
2023-01-25T20:57:54.505Z,23.74
2023-01-25T21:00:26.850Z,23.01
2023-01-25T21:02:57.849Z,23.97
2023-01-25T21:05:29.445Z,23.22
2023-01-25T21:07:59.881Z,22.88
2023-01-25T21:10:31.079Z,23.00
2023-01-25T21:13:02.421Z,23.37
2023-01-25T21:15:34.142Z,23.32
2023-01-25T21:18:05.432Z,23.25
2023-01-25T21:20:37.654Z,23.74
2023-01-25T21:23:08.926Z,24.42
2023-01-25T21:25:39.953Z,23.56
2023-01-25T21:28:10.855Z,24.99
2023-01-25T21:30:42.000Z,24.56
2023-01-25T21:33:13.232Z,24.86
2023-01-25T21:35:44.623Z,24.61
2023-01-25T21:38:15.761Z,25.11
2023-01-25T21:40:47.185Z,24.13
2023-01-25T21:43:19.348Z,23.83
2023-01-25T21:46:08.590Z,24.19
2023-01-25T21:48:57.847Z,24.76
2023-01-25T21:51:38.145Z,25.23
2023-01-25T21:54:09.626Z,24.50
2023-01-25T21:56:40.670Z,24.62
2023-01-25T21:59:11.635Z,24.45
2023-01-25T22:01:44.495Z,24.46
2023-01-25T22:04:16.948Z,24.57
2023-01-25T22:06:50.111Z,25.44
2023-01-25T22:09:21.327Z,25.57
2023-01-25T22:11:53.180Z,24.68
2023-01-25T22:14:24.648Z,23.91
2023-01-25T22:16:57.509Z,23.64
2023-01-25T22:19:28.823Z,24.71
2023-01-25T22:22:00.225Z,24.01
2023-01-25T22:24:31.107Z,23.91
2023-01-25T22:27:06.652Z,23.70
2023-01-25T22:29:37.858Z,24.27
2023-01-25T22:32:09.015Z,24.12
2023-01-25T22:34:40.210Z,24.35
2023-01-25T22:37:14.027Z,24.22
2023-01-25T22:39:46.227Z,24.24
2023-01-25T22:42:17.402Z,24.13
2023-01-25T22:44:48.466Z,23.91
2023-01-25T22:47:19.403Z,24.04
2023-01-25T22:49:50.684Z,23.99
2023-01-25T22:52:21.850Z,24.76
2023-01-25T22:54:53.242Z,24.79
2023-01-25T22:57:23.970Z,25.07
2023-01-25T22:59:55.013Z,24.44
2023-01-25T23:02:26.336Z,25.45
2023-01-25T23:04:57.565Z,25.61
2023-01-25T23:07:28.736Z,25.20
2023-01-25T23:09:59.538Z,25.24
2023-01-25T23:12:30.632Z,25.97
2023-01-25T23:15:04.041Z,24.79
2023-01-25T23:17:53.897Z,24.74
2023-01-25T23:20:25.200Z,24.46
2023-01-25T23:22:56.673Z,25.47
2023-01-25T23:25:28.079Z,25.96
2023-01-25T23:27:59.531Z,25.46
2023-01-25T23:30:30.528Z,24.46
2023-01-25T23:33:01.544Z,24.59
2023-01-25T23:35:32.337Z,24.17
2023-01-25T23:38:03.357Z,24.33
2023-01-25T23:40:34.076Z,24.05
2023-01-25T23:43:04.973Z,24.28
2023-01-25T23:45:35.846Z,24.61
2023-01-25T23:48:06.775Z,24.44
2023-01-25T23:50:37.812Z,24.36
2023-01-25T23:53:09.325Z,24.55
2023-01-25T23:55:40.534Z,23.98
2023-01-25T23:58:11.621Z,24.15
